createdAt,value
2019-02-16T00:03:39.931Z,9.57
2019-02-16T00:07:24.823Z,7.50
2019-02-16T00:11:09.877Z,7.83
2019-02-16T00:14:54.894Z,8.83
2019-02-16T00:18:39.484Z,11.20
2019-02-16T00:22:24.100Z,10.73
2019-02-16T00:26:08.736Z,15.23
2019-02-16T00:29:53.671Z,16.83
2019-02-16T00:33:38.657Z,16.93
2019-02-16T00:37:23.262Z,13.20
2019-02-16T00:41:07.918Z,11.80
2019-02-16T00:44:53.208Z,10.73
2019-02-16T00:48:37.900Z,10.20
2019-02-16T00:52:22.498Z,9.20
2019-02-16T00:56:00.374Z,9.70
2019-02-16T00:59:45.242Z,8.97
2019-02-16T01:03:29.824Z,10.53
2019-02-16T01:07:14.842Z,11.50
2019-02-16T01:10:59.774Z,18.07
2019-02-16T01:14:44.381Z,16.33
2019-02-16T01:18:28.983Z,15.00
2019-02-16T01:22:13.568Z,13.10
2019-02-16T01:25:58.189Z,11.47
2019-02-16T01:29:43.144Z,10.20
2019-02-16T01:33:28.146Z,9.57
2019-02-16T01:37:12.751Z,9.03
2019-02-16T01:40:57.424Z,9.47
2019-02-16T01:44:42.088Z,9.03
2019-02-16T01:48:27.005Z,9.10
2019-02-16T01:52:11.664Z,9.33
2019-02-16T01:55:56.607Z,8.60
2019-02-16T01:59:34.153Z,8.97
2019-02-16T02:03:19.107Z,9.23
2019-02-16T02:06:56.885Z,9.47
2019-02-16T02:10:41.821Z,9.13
2019-02-16T02:14:26.523Z,10.00
2019-02-16T02:18:11.216Z,11.03
2019-02-16T02:21:55.841Z,9.80
2019-02-16T02:25:40.810Z,8.80
2019-02-16T02:29:25.450Z,8.90
2019-02-16T02:33:10.098Z,8.37
2019-02-16T02:36:55.026Z,8.57
2019-02-16T02:40:39.659Z,8.73
2019-02-16T02:44:24.283Z,7.80
2019-02-16T02:48:09.293Z,8.17
2019-02-16T02:51:53.917Z,8.80
2019-02-16T02:55:38.587Z,9.03
2019-02-16T02:59:24.153Z,9.13
2019-02-16T03:03:08.796Z,8.27
2019-02-16T03:06:46.540Z,8.63
2019-02-16T03:10:31.189Z,9.40
2019-02-16T03:14:16.377Z,8.60
2019-02-16T03:18:01.033Z,8.80
2019-02-16T03:21:45.686Z,8.67
2019-02-16T03:25:30.644Z,9.17
2019-02-16T03:29:53.462Z,9.73
2019-02-16T03:33:59.917Z,9.33
2019-02-16T03:38:22.673Z,8.57
2019-02-16T03:42:07.336Z,9.27
2019-02-16T03:45:51.987Z,9.27
2019-02-16T03:49:36.940Z,10.37
2019-02-16T03:53:21.598Z,10.77
2019-02-16T03:57:06.610Z,9.70
2019-02-16T04:00:51.299Z,9.03
2019-02-16T04:04:35.969Z,10.50
2019-02-16T04:08:12.840Z,10.07
2019-02-16T04:11:57.479Z,10.93
2019-02-16T04:15:42.199Z,10.53
2019-02-16T04:19:26.858Z,9.53
2019-02-16T04:23:11.861Z,10.00
2019-02-16T04:26:57.006Z,9.77
2019-02-16T04:30:41.649Z,9.53
2019-02-16T04:34:27.009Z,9.53
2019-02-16T04:38:11.634Z,8.43
2019-02-16T04:41:56.271Z,9.80
2019-02-16T04:45:40.910Z,8.13
2019-02-16T04:49:25.521Z,9.10
2019-02-16T04:53:10.104Z,8.27
2019-02-16T04:56:54.734Z,10.73
2019-02-16T05:00:31.688Z,9.53
2019-02-16T05:04:16.298Z,9.00
2019-02-16T05:08:01.255Z,9.40
2019-02-16T05:11:45.887Z,8.93
2019-02-16T05:15:30.517Z,7.77
2019-02-16T05:19:15.133Z,10.07
2019-02-16T05:22:59.754Z,10.67
2019-02-16T05:26:44.382Z,9.30
2019-02-16T05:30:28.989Z,9.53
2019-02-16T05:34:13.591Z,9.37
2019-02-16T05:37:58.188Z,10.47
2019-02-16T05:41:43.136Z,8.80
2019-02-16T05:45:28.018Z,9.77
2019-02-16T05:49:12.643Z,9.03
2019-02-16T05:52:57.258Z,9.43
2019-02-16T05:56:41.937Z,10.63
2019-02-16T06:00:20.656Z,9.87
2019-02-16T06:04:05.240Z,10.33
2019-02-16T06:07:50.220Z,9.43
2019-02-16T06:11:34.837Z,8.50
2019-02-16T06:15:19.459Z,9.83
2019-02-16T06:19:04.405Z,9.77
2019-02-16T06:26:34.330Z,10.13
2019-02-16T06:30:29.285Z,8.60
2019-02-16T06:34:17.251Z,10.00
2019-02-16T06:38:01.885Z,9.00
2019-02-16T06:41:46.508Z,8.20
2019-02-16T06:45:31.307Z,9.37
2019-02-16T06:49:16.148Z,8.17
2019-02-16T06:57:10.852Z,9.93
2019-02-16T07:00:47.593Z,9.03
2019-02-16T07:04:32.219Z,9.20
2019-02-16T07:08:16.854Z,10.00
2019-02-16T07:12:01.447Z,9.80
2019-02-16T07:19:56.346Z,9.87
2019-02-16T07:23:40.948Z,9.63
2019-02-16T07:27:25.612Z,9.07
2019-02-16T07:31:10.482Z,9.50
2019-02-16T07:34:55.088Z,10.37
2019-02-16T07:38:39.678Z,10.03
2019-02-16T07:46:29.806Z,10.30
2019-02-16T07:50:33.228Z,10.93
2019-02-16T07:54:32.431Z,11.07
2019-02-16T07:58:22.415Z,11.27
2019-02-16T08:02:06.502Z,11.30
2019-02-16T08:06:09.935Z,10.40
2019-02-16T08:10:26.019Z,10.27
2019-02-16T08:14:19.664Z,10.63
2019-02-16T08:18:13.182Z,9.90
2019-02-16T08:22:16.983Z,9.67
2019-02-16T08:26:20.456Z,11.00
2019-02-16T08:30:15.116Z,10.30
2019-02-16T08:34:18.552Z,10.13
2019-02-16T08:38:22.034Z,10.07
2019-02-16T08:42:25.568Z,11.07
2019-02-16T08:46:29.106Z,10.57
2019-02-16T08:50:32.567Z,10.83
2019-02-16T08:54:36.071Z,11.10
2019-02-16T08:58:39.616Z,10.87
2019-02-16T09:02:35.407Z,10.13
2019-02-16T09:10:59.468Z,10.80
2019-02-16T09:15:02.920Z,11.90
2019-02-16T09:19:06.425Z,10.87
2019-02-16T09:27:10.621Z,11.17
2019-02-16T09:31:14.574Z,11.30
2019-02-16T09:35:18.089Z,12.83
2019-02-16T09:39:44.458Z,12.33
2019-02-16T09:43:48.458Z,11.47
2019-02-16T09:47:41.581Z,11.83
2019-02-16T09:51:45.483Z,11.38
2019-02-16T09:55:48.941Z,11.53
2019-02-16T09:59:43.698Z,11.35
2019-02-16T10:03:47.185Z,12.73
2019-02-16T10:07:50.657Z,10.98
2019-02-16T10:11:42.552Z,11.30
2019-02-16T10:16:06.822Z,11.40
2019-02-16T10:20:10.299Z,11.97
2019-02-16T10:24:17.887Z,12.03
2019-02-16T10:28:13.253Z,12.37
2019-02-16T10:32:16.793Z,11.35
2019-02-16T10:36:20.218Z,12.03
2019-02-16T10:40:10.604Z,12.85
2019-02-16T10:44:14.106Z,13.43
2019-02-16T10:48:17.565Z,11.35
2019-02-16T10:52:09.244Z,12.88
2019-02-16T10:56:13.242Z,11.85
2019-02-16T11:00:16.685Z,13.03
2019-02-16T11:04:13.237Z,12.90
2019-02-16T11:08:16.751Z,13.72
2019-02-16T11:12:20.253Z,13.10
2019-02-16T11:16:23.709Z,13.32
2019-02-16T11:24:35.914Z,12.78
2019-02-16T11:28:33.821Z,13.55
2019-02-16T11:32:59.415Z,13.72
2019-02-16T11:37:02.922Z,13.80
2019-02-16T11:40:53.122Z,12.93
2019-02-16T11:44:56.632Z,13.22
2019-02-16T11:49:00.087Z,14.35
2019-02-16T11:53:03.849Z,14.10
2019-02-16T11:57:07.328Z,14.07
2019-02-16T12:01:06.940Z,14.98
2019-02-16T12:04:59.775Z,14.23
2019-02-16T12:09:03.243Z,16.27
2019-02-16T12:13:06.797Z,16.77
2019-02-16T12:17:10.278Z,16.45
2019-02-16T12:21:03.668Z,14.87
2019-02-16T12:25:07.136Z,16.77
2019-02-16T12:33:12.535Z,16.25
2019-02-16T12:37:16.008Z,16.10
2019-02-16T12:41:19.505Z,16.20
2019-02-16T12:45:11.460Z,16.45
2019-02-16T12:53:04.977Z,15.40
2019-02-16T12:57:08.527Z,16.62
2019-02-16T13:04:42.337Z,16.27
2019-02-16T13:08:45.912Z,17.02
2019-02-16T13:12:49.484Z,15.45
2019-02-16T13:16:52.977Z,16.90
2019-02-16T13:20:44.394Z,16.73
2019-02-16T13:24:47.870Z,16.35
2019-02-16T13:28:51.443Z,17.57
2019-02-16T13:32:54.920Z,19.32
2019-02-16T13:36:47.794Z,20.40
2019-02-16T13:40:51.284Z,19.35
2019-02-16T13:44:55.090Z,18.87
2019-02-16T13:48:47.581Z,19.67
2019-02-16T13:52:38.066Z,19.67
2019-02-16T13:56:35.725Z,19.30
2019-02-16T14:00:39.790Z,19.25
2019-02-16T14:04:30.992Z,17.82
2019-02-16T14:08:34.450Z,16.82
2019-02-16T14:12:37.894Z,17.10
2019-02-16T14:16:41.374Z,19.80
2019-02-16T14:24:48.410Z,17.82
2019-02-16T14:28:35.596Z,17.20
2019-02-16T14:32:20.186Z,16.12
2019-02-16T14:47:49.140Z,16.57
2019-02-16T14:51:33.760Z,17.75
2019-02-16T15:02:51.179Z,16.55
2019-02-16T15:10:39.318Z,17.20
2019-02-16T15:14:23.969Z,19.25
2019-02-16T15:18:08.678Z,18.20
2019-02-16T15:21:53.278Z,18.12
2019-02-16T15:25:37.895Z,18.82
2019-02-16T15:37:10.174Z,17.35
2019-02-16T15:56:15.613Z,17.80
2019-02-16T16:00:00.727Z,18.10
2019-02-16T16:03:41.179Z,18.65
2019-02-16T16:07:25.806Z,18.95
2019-02-16T16:19:58.025Z,18.42
2019-02-16T16:24:01.630Z,18.37
2019-02-16T16:28:05.177Z,17.02
2019-02-16T16:31:59.168Z,15.85
2019-02-16T16:36:01.967Z,16.23
2019-02-16T16:44:35.841Z,15.98
2019-02-16T16:48:39.343Z,16.37
2019-02-16T16:52:43.160Z,18.17
2019-02-16T16:56:48.460Z,19.37
2019-02-16T17:00:52.077Z,20.57
2019-02-16T17:09:02.909Z,22.73
2019-02-16T17:13:06.364Z,25.15
2019-02-16T17:17:09.852Z,27.00
2019-02-16T17:21:13.307Z,26.02
2019-02-16T17:25:18.300Z,23.85
2019-02-16T17:29:22.066Z,23.62
2019-02-16T17:33:25.548Z,25.40
2019-02-16T17:37:41.420Z,23.25
2019-02-16T17:41:29.683Z,22.33
2019-02-16T17:45:33.168Z,22.95
2019-02-16T17:49:36.636Z,23.87
2019-02-16T17:53:40.094Z,26.70
2019-02-16T17:57:43.689Z,30.37
2019-02-16T18:01:47.426Z,25.87
2019-02-16T18:05:50.896Z,23.63
2019-02-16T18:09:54.365Z,22.50
2019-02-16T18:13:57.853Z,23.43
2019-02-16T18:18:01.342Z,22.30
2019-02-16T18:22:05.088Z,22.77
2019-02-16T18:26:08.572Z,22.97
2019-02-16T18:34:17.644Z,21.63
2019-02-16T18:38:02.207Z,22.47
2019-02-16T18:42:05.692Z,21.60
2019-02-16T18:45:44.010Z,22.47
2019-02-16T18:49:39.830Z,24.50
2019-02-16T18:53:45.755Z,26.70
2019-02-16T18:57:49.243Z,25.73
2019-02-16T19:01:41.827Z,23.80
2019-02-16T19:05:45.310Z,23.73
2019-02-16T19:09:49.219Z,23.77
2019-02-16T19:13:52.031Z,23.77
2019-02-16T19:17:55.724Z,22.07
2019-02-16T19:21:59.258Z,22.73
2019-02-16T19:25:59.812Z,20.40
2019-02-16T19:30:03.292Z,20.50
2019-02-16T19:34:06.740Z,21.47
2019-02-16T19:38:10.207Z,20.87
2019-02-16T19:41:54.613Z,23.17
2019-02-16T19:45:58.085Z,23.50
2019-02-16T19:49:43.027Z,21.33
2019-02-16T19:53:46.514Z,23.27
2019-02-16T19:57:49.948Z,23.00
2019-02-16T20:01:53.417Z,24.50
2019-02-16T20:05:56.919Z,26.10
2019-02-16T20:10:00.403Z,27.33
2019-02-16T20:14:04.408Z,28.70
2019-02-16T20:18:07.851Z,29.63
2019-02-16T20:22:11.566Z,29.27
2019-02-16T20:26:15.008Z,26.87
2019-02-16T20:30:18.486Z,31.13
2019-02-16T20:34:22.201Z,30.07
2019-02-16T20:38:26.252Z,31.43
2019-02-16T20:42:22.607Z,30.33
2019-02-16T20:46:14.458Z,28.27
2019-02-16T20:50:18.198Z,29.07
2019-02-16T20:54:21.685Z,29.77
2019-02-16T20:58:25.178Z,27.53
2019-02-16T21:02:17.308Z,30.60
2019-02-16T21:06:20.767Z,28.60
2019-02-16T21:10:24.448Z,29.67
2019-02-16T21:14:27.903Z,29.83
2019-02-16T21:18:31.406Z,30.03
2019-02-16T21:22:35.194Z,31.30
2019-02-16T21:26:39.776Z,29.97
2019-02-16T21:30:43.832Z,29.50
2019-02-16T21:34:47.554Z,27.33
2019-02-16T21:38:51.289Z,29.17
2019-02-16T21:42:54.418Z,28.53
2019-02-16T21:46:50.214Z,28.50
2019-02-16T21:50:53.672Z,29.07
2019-02-16T21:54:42.658Z,29.47
2019-02-16T21:58:46.389Z,27.93
2019-02-16T22:02:49.915Z,29.53
2019-02-16T22:06:53.370Z,29.47
2019-02-16T22:10:56.794Z,28.73
2019-02-16T22:14:41.676Z,28.87
2019-02-16T22:18:26.977Z,27.40
2019-02-16T22:22:11.651Z,27.93
2019-02-16T22:30:00.115Z,27.53
2019-02-16T22:34:41.812Z,28.57
2019-02-16T22:38:19.252Z,28.10
2019-02-16T22:42:04.237Z,28.57
2019-02-16T22:45:49.234Z,28.97
2019-02-16T22:53:07.030Z,27.50
2019-02-16T22:56:51.604Z,28.17
2019-02-16T23:00:42.632Z,26.10
2019-02-16T23:04:27.282Z,27.27
2019-02-16T23:08:12.330Z,26.90
2019-02-16T23:11:57.042Z,28.40
2019-02-16T23:15:41.644Z,27.50
2019-02-16T23:19:26.303Z,28.23
2019-02-16T23:23:11.058Z,25.30
2019-02-16T23:26:56.081Z,24.60
2019-02-16T23:30:41.422Z,24.47
2019-02-16T23:34:26.045Z,24.57
2019-02-16T23:38:03.502Z,25.83
2019-02-16T23:41:48.431Z,23.30
2019-02-16T23:45:33.055Z,24.63
2019-02-16T23:49:17.681Z,23.07
2019-02-16T23:53:02.299Z,25.07
2019-02-16T23:57:06.088Z,25.87
